Time;durP1;ratioP1;P1;durP2;ratioP2;P2;SDS_P1;SDS_P2;PMS_P1;PMS_P2;Temp;Humidity;BMP_temperature;BMP_pressure;BME280_temperature;BME280_humidity;BME280_pressure;Samples;Min_cycle;Max_cycle;Signal;HPM_P1;HPM_P2
2024/02/12 00:01:20;;;;;;;111.38;37.60;;;8.30;99.90;;;;;;4952985;28;20026;-68
2024/02/12 00:03:49;;;;;;;111.63;37.33;;;8.30;99.90;;;;;;4936218;29;20031;-69
2024/02/12 00:06:15;;;;;;;103.95;36.60;;;8.30;99.90;;;;;;4953999;28;20078;-68
2024/02/12 00:08:42;;;;;;;105.32;36.70;;;8.30;99.90;;;;;;4936564;28;20083;-69
2024/02/12 00:11:08;;;;;;;104.43;34.80;;;8.30;99.90;;;;;;4952791;28;20027;-69
2024/02/12 00:13:34;;;;;;;110.75;37.33;;;8.30;99.90;;;;;;4953655;28;20034;-68
2024/02/12 00:15:59;;;;;;;122.10;36.47;;;8.30;99.90;;;;;;4953662;28;20051;-67
2024/02/12 00:18:25;;;;;;;89.50;32.03;;;8.30;99.90;;;;;;4936041;29;20032;-69
2024/02/12 00:20:52;;;;;;;95.03;32.70;;;8.30;99.90;;;;;;4952295;28;20524;-68
2024/02/12 00:23:17;;;;;;;103.85;35.25;;;8.30;99.90;;;;;;4953560;29;20019;-72
2024/02/12 00:25:45;;;;;;;94.63;33.88;;;8.30;99.90;;;;;;4936590;29;20023;-68
2024/02/12 00:28:10;;;;;;;110.78;35.60;;;8.30;99.90;;;;;;4953051;28;20046;-69
2024/02/12 00:30:39;;;;;;;104.70;36.15;;;8.30;99.90;;;;;;4953965;28;20405;-69
2024/02/12 00:33:06;;;;;;;97.32;34.95;;;8.30;99.90;;;;;;4953560;28;20432;-68
2024/02/12 00:35:33;;;;;;;98.22;34.08;;;8.30;99.90;;;;;;4953157;28;20066;-70
2024/02/12 00:38:00;;;;;;;95.38;33.85;;;8.30;99.90;;;;;;4953620;28;20031;-68
2024/02/12 00:40:26;;;;;;;101.55;34.25;;;8.30;99.90;;;;;;4952552;28;20063;-68
2024/02/12 00:42:57;;;;;;;99.32;35.58;;;8.40;99.90;;;;;;4952345;28;20027;-69
2024/02/12 00:45:23;;;;;;;103.13;33.10;;;8.30;99.90;;;;;;4953334;28;20028;-71
2024/02/12 00:47:50;;;;;;;98.38;34.28;;;8.30;99.90;;;;;;4951806;28;20042;-69
2024/02/12 00:50:17;;;;;;;90.60;32.38;;;8.40;99.90;;;;;;4952660;29;20507;-69
2024/02/12 00:52:43;;;;;;;92.00;32.67;;;8.40;99.90;;;;;;4936203;28;20027;-71
2024/02/12 00:55:13;;;;;;;89.38;32.88;;;8.40;99.90;;;;;;4935750;29;20031;-67
2024/02/12 00:57:39;;;;;;;106.30;32.72;;;8.40;99.90;;;;;;4953221;28;20031;-70
2024/02/12 01:00:06;;;;;;;90.90;33.70;;;8.40;99.90;;;;;;4953658;28;20082;-71
2024/02/12 01:02:33;;;;;;;108.65;34.70;;;8.40;99.90;;;;;;4952921;28;20023;-71
2024/02/12 01:05:00;;;;;;;102.13;33.90;;;8.40;99.90;;;;;;4952701;28;20027;-71
2024/02/12 01:07:25;;;;;;;102.78;34.85;;;8.40;99.90;;;;;;4952986;28;20020;-70
2024/02/12 01:09:51;;;;;;;102.30;32.83;;;8.30;99.90;;;;;;4952496;29;20110;-68
2024/02/12 01:12:17;;;;;;;103.60;34.20;;;8.30;99.90;;;;;;4953281;28;20115;-70
2024/02/12 01:14:43;;;;;;;103.35;34.05;;;8.40;99.90;;;;;;4954190;29;20063;-70
2024/02/12 01:17:10;;;;;;;106.30;35.15;;;8.40;99.90;;;;;;4953380;28;20035;-70
2024/02/12 01:19:36;;;;;;;122.03;35.35;;;8.40;99.90;;;;;;4953365;28;20019;-69
2024/02/12 01:22:03;;;;;;;99.28;33.97;;;8.40;99.90;;;;;;4953975;28;20030;-67
2024/02/12 01:24:30;;;;;;;121.80;35.17;;;8.40;99.90;;;;;;4954653;28;20087;-68
2024/02/12 01:26:56;;;;;;;99.78;33.47;;;8.40;99.90;;;;;;4957167;28;20036;-69
2024/02/12 01:29:24;;;;;;;116.88;35.78;;;8.30;99.90;;;;;;4939903;29;20040;-69
2024/02/12 01:31:53;;;;;;;112.75;36.17;;;8.30;99.90;;;;;;4956825;28;20027;-70
2024/02/12 01:34:19;;;;;;;114.28;36.35;;;8.30;99.90;;;;;;4956471;28;20103;-68
2024/02/12 01:36:45;;;;;;;119.25;37.28;;;8.30;99.90;;;;;;4957007;28;20867;-68
2024/02/12 01:39:11;;;;;;;110.18;35.10;;;8.30;99.90;;;;;;4957132;29;20027;-70
2024/02/12 01:41:37;;;;;;;117.93;36.58;;;8.30;99.90;;;;;;4956388;29;20532;-70
2024/02/12 01:44:04;;;;;;;121.85;37.97;;;8.30;99.90;;;;;;4956877;28;20043;-68
2024/02/12 01:46:30;;;;;;;127.60;38.10;;;8.30;99.90;;;;;;4956728;28;20031;-68
2024/02/12 01:48:57;;;;;;;123.68;37.30;;;8.30;99.90;;;;;;4957157;28;20067;-69
2024/02/12 01:51:23;;;;;;;121.65;38.33;;;8.30;99.90;;;;;;4956464;28;20035;-69
2024/02/12 01:53:53;;;;;;;135.35;38.00;;;8.30;99.90;;;;;;4956420;28;20079;-68
2024/02/12 01:56:21;;;;;;;120.72;35.90;;;8.30;99.90;;;;;;4957225;29;20047;-70
2024/02/12 01:58:46;;;;;;;119.28;38.55;;;8.30;99.90;;;;;;4956399;28;20028;-72
2024/02/12 02:01:14;;;;;;;113.57;37.47;;;8.30;99.90;;;;;;4955669;28;20053;-69
2024/02/12 02:03:43;;;;;;;122.20;38.47;;;8.30;99.90;;;;;;4956230;28;20030;-69
2024/02/12 02:06:12;;;;;;;112.07;37.75;;;8.30;99.90;;;;;;4939160;28;20063;-70
2024/02/12 02:08:39;;;;;;;113.20;37.05;;;8.30;99.90;;;;;;4956518;28;20031;-70
2024/02/12 02:11:10;;;;;;;123.85;39.17;;;8.30;99.90;;;;;;4956868;28;20036;-69
2024/02/12 02:13:42;;;;;;;115.18;37.53;;;8.30;99.90;;;;;;4955666;28;20028;-69
2024/02/12 02:16:08;;;;;;;137.45;40.13;;;8.30;99.90;;;;;;4956854;28;20031;-69
2024/02/12 02:18:33;;;;;;;118.28;36.25;;;8.30;99.90;;;;;;4955494;28;20082;-68
2024/02/12 02:21:00;;;;;;;132.18;39.78;;;8.30;99.90;;;;;;4955919;29;20059;-68
2024/02/12 02:23:27;;;;;;;129.43;39.70;;;8.30;99.90;;;;;;4956290;28;20378;-68
2024/02/12 02:25:53;;;;;;;122.03;38.95;;;8.30;99.90;;;;;;4956043;28;20024;-68
2024/02/12 02:28:20;;;;;;;128.50;40.08;;;8.30;99.90;;;;;;4956124;28;20043;-68
2024/02/12 02:30:50;;;;;;;137.70;40.20;;;8.30;99.90;;;;;;4956318;28;20032;-68
2024/02/12 02:33:16;;;;;;;119.82;38.25;;;8.30;99.90;;;;;;4955921;28;20032;-67
2024/02/12 02:35:44;;;;;;;117.80;38.55;;;8.20;99.90;;;;;;4955457;28;20030;-68
2024/02/12 02:38:13;;;;;;;122.95;38.70;;;8.20;99.90;;;;;;4938782;29;20023;-68
2024/02/12 02:40:39;;;;;;;115.65;38.10;;;8.20;99.90;;;;;;4955850;29;20031;-69
2024/02/12 02:43:06;;;;;;;139.18;38.95;;;8.20;99.90;;;;;;4955835;29;20032;-71
2024/02/12 02:45:32;;;;;;;130.05;39.95;;;8.20;99.90;;;;;;4955544;28;20024;-70
2024/02/12 02:47:57;;;;;;;137.40;39.40;;;8.20;99.90;;;;;;4954407;28;20050;-68
2024/02/12 02:50:24;;;;;;;123.65;38.20;;;8.20;99.90;;;;;;4954704;28;20023;-68
2024/02/12 02:52:50;;;;;;;136.73;40.47;;;8.10;99.90;;;;;;4954645;28;20035;-70
2024/02/12 02:55:17;;;;;;;125.82;41.05;;;8.10;99.90;;;;;;4937777;29;20079;-68
2024/02/12 02:57:46;;;;;;;131.07;41.63;;;8.10;99.90;;;;;;4955525;29;20024;-67
2024/02/12 03:00:12;;;;;;;144.30;41.83;;;8.10;99.90;;;;;;4955455;29;20027;-67
2024/02/12 03:02:42;;;;;;;118.68;39.33;;;8.10;99.90;;;;;;4955439;28;20031;-70
2024/02/12 03:05:08;;;;;;;138.25;39.50;;;8.10;99.90;;;;;;4955749;28;20131;-70
2024/02/12 03:07:37;;;;;;;128.38;40.22;;;8.10;99.90;;;;;;4955321;29;20050;-68
2024/02/12 03:10:03;;;;;;;119.40;39.35;;;8.10;99.90;;;;;;4955378;28;20042;-71
2024/02/12 03:12:30;;;;;;;130.68;39.88;;;8.00;99.90;;;;;;4955406;29;20027;-69
2024/02/12 03:14:57;;;;;;;132.60;39.80;;;7.90;99.90;;;;;;4955126;28;20016;-67
2024/02/12 03:17:23;;;;;;;120.85;38.70;;;8.00;99.90;;;;;;4954754;28;20034;-69
2024/02/12 03:19:48;;;;;;;125.07;39.40;;;7.90;99.90;;;;;;4955871;29;20019;-68
2024/02/12 03:22:14;;;;;;;127.38;39.78;;;7.90;99.90;;;;;;4955579;28;20030;-69
2024/02/12 03:24:40;;;;;;;123.28;38.60;;;7.90;99.90;;;;;;4954787;28;20075;-69
2024/02/12 03:27:05;;;;;;;136.52;39.47;;;7.90;99.90;;;;;;4955218;28;20027;-69
2024/02/12 03:29:32;;;;;;;127.40;39.50;;;7.90;99.90;;;;;;4954898;29;20067;-70
2024/02/12 03:31:58;;;;;;;131.52;38.72;;;7.90;99.90;;;;;;4954700;28;20027;-68
2024/02/12 03:34:29;;;;;;;136.98;38.85;;;7.80;99.90;;;;;;4955400;28;20034;-72
2024/02/12 03:36:55;;;;;;;139.85;39.35;;;7.80;99.90;;;;;;4954381;28;20016;-67
2024/02/12 03:39:21;;;;;;;123.05;36.50;;;7.80;99.90;;;;;;4937592;29;20019;-69
2024/02/12 03:41:47;;;;;;;120.10;37.05;;;7.80;99.90;;;;;;4954751;29;20034;-71
2024/02/12 03:44:13;;;;;;;121.97;37.55;;;7.70;99.90;;;;;;4954903;29;20028;-70
2024/02/12 03:46:45;;;;;;;134.35;38.47;;;7.70;99.90;;;;;;4954089;28;20023;-69
2024/02/12 04:00:18;;;;;;;123.00;36.85;;;7.60;99.90;;;;;;4951359;28;20058;-68
2024/02/12 04:02:45;;;;;;;130.18;37.05;;;7.70;99.90;;;;;;4936722;29;20039;-69
2024/02/12 04:05:11;;;;;;;130.02;37.55;;;7.70;99.90;;;;;;4954280;29;20043;-69
2024/02/12 04:07:43;;;;;;;122.50;37.85;;;7.70;99.90;;;;;;5078798;28;20391;-69
2024/02/12 04:10:12;;;;;;;122.45;36.50;;;7.70;99.90;;;;;;5079103;28;20078;-69
2024/02/12 04:12:39;;;;;;;123.72;37.38;;;7.70;99.90;;;;;;5078382;28;20430;-67
2024/02/12 04:15:08;;;;;;;132.25;37.15;;;7.70;99.90;;;;;;5079146;28;20064;-69
2024/02/12 04:17:34;;;;;;;118.70;35.50;;;7.70;99.90;;;;;;5078793;28;20032;-69
2024/02/12 04:20:01;;;;;;;127.82;36.67;;;7.70;99.90;;;;;;5077259;28;20196;-69
2024/02/12 04:22:27;;;;;;;126.63;36.85;;;7.70;99.90;;;;;;5078634;28;20024;-68
2024/02/12 04:24:54;;;;;;;119.60;35.05;;;7.70;99.90;;;;;;5078803;28;20029;-67
2024/02/12 04:27:20;;;;;;;112.97;33.60;;;7.70;99.90;;;;;;5078594;28;20044;-68
2024/02/12 04:29:46;;;;;;;121.47;36.33;;;7.70;99.90;;;;;;5078425;28;20028;-68
2024/02/12 04:32:11;;;;;;;110.70;33.15;;;7.70;99.90;;;;;;5077958;28;20099;-68
2024/02/12 04:34:41;;;;;;;107.95;33.63;;;7.70;99.90;;;;;;5078744;28;20024;-69
2024/02/12 04:37:08;;;;;;;119.22;34.17;;;7.60;99.90;;;;;;5078629;28;20131;-67
2024/02/12 04:39:37;;;;;;;117.07;33.75;;;7.60;99.90;;;;;;5078240;28;20084;-68
2024/02/12 04:42:03;;;;;;;108.35;32.83;;;7.60;99.90;;;;;;5074782;28;20027;-69
2024/02/12 04:44:29;;;;;;;112.32;33.90;;;7.60;99.90;;;;;;5077343;28;20048;-69
2024/02/12 04:46:56;;;;;;;122.32;32.20;;;7.60;99.90;;;;;;5077999;28;20041;-68
2024/02/12 04:49:21;;;;;;;99.85;33.92;;;7.60;99.90;;;;;;5078372;28;20365;-70
2024/02/12 04:51:48;;;;;;;103.20;33.28;;;7.60;99.90;;;;;;5078417;28;20084;-67
2024/02/12 04:54:16;;;;;;;101.78;33.22;;;7.60;99.90;;;;;;5076515;28;20075;-67
2024/02/12 04:56:42;;;;;;;93.63;29.88;;;7.60;99.90;;;;;;5076796;28;20025;-68
2024/02/12 04:59:15;;;;;;;100.15;30.60;;;7.60;99.90;;;;;;5078147;28;20032;-70
2024/02/12 05:01:41;;;;;;;106.07;33.40;;;7.60;99.90;;;;;;5077729;28;20046;-68
2024/02/12 05:04:07;;;;;;;97.55;30.48;;;7.60;99.90;;;;;;5077743;28;20115;-68
2024/02/12 05:06:36;;;;;;;90.95;31.42;;;7.60;99.90;;;;;;5075173;28;20076;-71
2024/02/12 05:09:04;;;;;;;105.80;30.55;;;7.60;99.90;;;;;;5077418;28;20089;-68
2024/02/12 05:11:29;;;;;;;98.15;29.20;;;7.60;99.90;;;;;;5077940;28;20424;-66
2024/02/12 05:13:55;;;;;;;95.63;28.90;;;7.50;99.90;;;;;;5077724;28;20083;-67
2024/02/12 05:16:29;;;;;;;97.90;30.10;;;7.50;99.90;;;;;;5077098;28;20025;-67
2024/02/12 05:24:27;;;;;;;94.35;29.58;;;7.50;99.90;;;;;;5064690;28;20051;-66
2024/02/12 05:26:56;;;;;;;93.13;30.13;;;7.50;99.90;;;;;;5063010;28;20033;-67
2024/02/12 05:29:25;;;;;;;92.55;29.92;;;7.50;99.90;;;;;;5064246;28;20027;-66
2024/02/12 05:31:52;;;;;;;102.60;29.65;;;7.50;99.90;;;;;;5063591;28;20436;-68
2024/02/12 05:34:21;;;;;;;97.32;30.42;;;7.50;99.90;;;;;;5064071;28;20453;-67
2024/02/12 05:36:56;;;;;;;92.70;28.45;;;7.50;99.90;;;;;;5063545;28;20048;-69
2024/02/12 05:39:22;;;;;;;82.78;27.90;;;7.40;99.90;;;;;;5064311;28;20021;-68
2024/02/12 05:41:48;;;;;;;90.85;28.52;;;7.40;99.90;;;;;;5064778;28;20025;-68
2024/02/12 05:44:15;;;;;;;97.60;29.20;;;7.40;99.90;;;;;;5063929;28;20029;-70
2024/02/12 05:46:41;;;;;;;90.20;28.55;;;7.40;99.90;;;;;;5062544;28;20055;-69
2024/02/12 05:49:06;;;;;;;90.18;29.20;;;7.40;99.90;;;;;;5063417;28;20713;-66
2024/02/12 05:51:33;;;;;;;90.10;27.92;;;7.40;99.90;;;;;;5062049;28;20043;-68
2024/02/12 05:54:00;;;;;;;82.93;28.92;;;7.40;99.90;;;;;;5062112;28;20059;-70
2024/02/12 05:56:26;;;;;;;82.88;28.13;;;7.30;99.90;;;;;;5063895;28;20032;-70
2024/02/12 05:58:51;;;;;;;83.18;26.35;;;7.40;99.90;;;;;;5061694;28;20025;-69
2024/02/12 06:01:17;;;;;;;71.25;24.92;;;7.30;99.90;;;;;;5064439;28;20017;-69
2024/02/12 06:03:43;;;;;;;75.78;26.30;;;7.30;99.90;;;;;;5062466;28;20089;-69
2024/02/12 06:06:08;;;;;;;85.65;26.67;;;7.30;99.90;;;;;;5062068;28;20501;-70
2024/02/12 06:08:34;;;;;;;77.00;25.63;;;7.30;99.90;;;;;;5063702;28;20031;-69
2024/02/12 06:10:59;;;;;;;83.65;26.27;;;7.20;99.90;;;;;;5061966;28;20029;-68
2024/02/12 06:13:25;;;;;;;74.45;24.58;;;7.30;99.90;;;;;;5062894;28;20037;-66
2024/02/12 06:15:51;;;;;;;88.32;26.50;;;7.30;99.90;;;;;;5063309;28;20025;-69
2024/02/12 06:18:17;;;;;;;73.85;25.25;;;7.20;99.90;;;;;;5063466;28;20029;-69
2024/02/12 06:20:42;;;;;;;72.95;24.23;;;7.20;99.90;;;;;;5060766;28;20077;-66
2024/02/12 06:23:08;;;;;;;67.43;23.90;;;7.20;99.90;;;;;;5062739;28;20029;-66
2024/02/12 06:25:33;;;;;;;67.07;24.40;;;7.20;99.90;;;;;;5063067;28;20033;-68
2024/02/12 06:28:02;;;;;;;66.45;23.38;;;7.20;99.90;;;;;;5062288;28;20443;-68
2024/02/12 06:30:27;;;;;;;62.78;23.42;;;7.20;99.90;;;;;;5062703;28;20028;-68
2024/02/12 06:32:53;;;;;;;62.45;22.27;;;7.20;99.90;;;;;;5062560;28;20040;-69
2024/02/12 06:35:19;;;;;;;60.08;21.00;;;7.10;99.90;;;;;;5063050;28;20013;-68
2024/02/12 06:37:47;;;;;;;60.58;22.70;;;7.10;99.90;;;;;;5063183;28;20543;-68
2024/02/12 06:40:13;;;;;;;52.38;20.95;;;7.10;99.90;;;;;;5061116;28;20064;-68
2024/02/12 06:42:39;;;;;;;61.58;20.80;;;7.20;99.90;;;;;;5063311;28;20021;-68
2024/02/12 06:45:05;;;;;;;54.15;21.17;;;7.20;99.90;;;;;;5063061;28;20491;-66
2024/02/12 06:47:31;;;;;;;67.85;21.70;;;7.10;99.90;;;;;;5062339;28;20024;-69
2024/02/12 06:49:56;;;;;;;54.28;20.77;;;7.10;99.90;;;;;;5062831;28;20095;-69
2024/02/12 06:52:22;;;;;;;54.03;20.50;;;7.10;99.90;;;;;;5062758;28;20024;-68
2024/02/12 06:54:48;;;;;;;51.25;19.63;;;7.10;99.90;;;;;;5062245;28;20055;-68
2024/02/12 06:57:15;;;;;;;54.28;19.20;;;7.10;99.90;;;;;;5062770;28;20028;-68
2024/02/12 06:59:41;;;;;;;52.97;19.90;;;7.00;99.90;;;;;;5060387;28;20077;-69
2024/02/12 07:02:07;;;;;;;50.13;18.98;;;6.90;99.90;;;;;;5062724;28;20085;-68
2024/02/12 07:04:32;;;;;;;49.85;18.50;;;6.90;99.90;;;;;;5062506;28;20021;-69
2024/02/12 07:06:58;;;;;;;48.72;19.15;;;6.90;99.90;;;;;;5062110;28;20053;-66
2024/02/12 07:09:24;;;;;;;52.22;20.27;;;6.90;99.90;;;;;;5061582;28;20082;-67
2024/02/12 07:11:50;;;;;;;59.13;19.42;;;6.90;99.90;;;;;;5062055;28;20063;-69
2024/02/12 07:14:16;;;;;;;55.13;20.15;;;6.90;99.90;;;;;;5062042;28;20465;-69
2024/02/12 07:16:42;;;;;;;54.47;20.55;;;6.90;99.90;;;;;;5062714;28;20021;-69
2024/02/12 07:19:08;;;;;;;57.38;20.83;;;7.10;99.90;;;;;;5062398;28;20013;-69
2024/02/12 07:21:34;;;;;;;52.40;20.15;;;7.00;99.90;;;;;;5062007;28;20055;-68
2024/02/12 07:24:00;;;;;;;64.35;21.33;;;7.10;99.90;;;;;;5060888;28;20084;-69
2024/02/12 07:26:26;;;;;;;60.35;20.52;;;7.10;99.90;;;;;;5061426;28;20060;-69
2024/02/12 07:28:51;;;;;;;58.90;21.40;;;7.10;99.90;;;;;;5061125;28;20081;-68
2024/02/12 07:31:17;;;;;;;67.60;21.15;;;7.20;99.90;;;;;;5062052;28;20032;-67
2024/02/12 07:33:43;;;;;;;60.13;21.65;;;7.20;99.90;;;;;;5061752;28;20029;-69
2024/02/12 07:36:08;;;;;;;66.03;22.42;;;7.20;99.90;;;;;;5060410;28;20051;-68
2024/02/12 07:38:36;;;;;;;61.08;21.83;;;7.20;99.90;;;;;;5060706;28;20048;-69
2024/02/12 07:41:02;;;;;;;63.83;22.13;;;7.20;99.90;;;;;;5060607;28;20021;-69
2024/02/12 07:43:28;;;;;;;65.03;23.15;;;7.20;99.90;;;;;;5058794;28;20027;-67
2024/02/12 07:46:00;;;;;;;61.58;21.40;;;7.20;99.90;;;;;;5061825;28;20040;-68
2024/02/12 07:48:28;;;;;;;56.83;22.15;;;7.20;99.90;;;;;;5060848;28;20550;-69
2024/02/12 07:50:54;;;;;;;64.82;23.20;;;7.30;99.90;;;;;;5058987;28;20021;-67
2024/02/12 07:53:25;;;;;;;63.10;22.15;;;7.20;99.90;;;;;;5054652;28;20021;-68
2024/02/12 07:55:54;;;;;;;67.97;23.50;;;7.20;99.90;;;;;;5051039;28;20485;-68
2024/02/12 07:58:20;;;;;;;71.55;23.50;;;7.30;99.90;;;;;;5057952;28;20043;-68
2024/02/12 08:00:49;;;;;;;69.63;23.85;;;7.20;99.90;;;;;;5060464;28;20048;-70
2024/02/12 08:03:19;;;;;;;59.17;22.65;;;7.20;99.90;;;;;;5058611;28;20029;-67
2024/02/12 08:05:48;;;;;;;64.15;22.38;;;7.20;99.90;;;;;;5060925;28;20088;-69
2024/02/12 08:08:14;;;;;;;62.50;23.52;;;7.20;99.90;;;;;;5061789;28;20031;-68
2024/02/12 08:10:43;;;;;;;75.90;24.38;;;7.20;99.90;;;;;;5061013;28;20045;-70
2024/02/12 08:13:09;;;;;;;68.63;23.13;;;7.20;99.90;;;;;;5060416;28;20052;-69
2024/02/12 08:15:39;;;;;;;68.97;25.02;;;7.20;99.90;;;;;;5059733;28;20021;-67
2024/02/12 08:18:06;;;;;;;74.53;26.40;;;7.20;99.90;;;;;;5061279;28;20057;-69
2024/02/12 08:20:32;;;;;;;76.10;24.17;;;7.20;99.90;;;;;;5059819;28;20021;-69
2024/02/12 08:22:57;;;;;;;74.80;24.95;;;7.30;99.90;;;;;;5060564;28;20033;-70
2024/02/12 08:25:24;;;;;;;75.65;25.73;;;7.30;99.90;;;;;;5061622;28;20021;-70
2024/02/12 08:27:49;;;;;;;75.47;26.25;;;7.30;99.90;;;;;;5060119;28;20032;-67
2024/02/12 08:30:16;;;;;;;77.95;25.30;;;7.30;99.90;;;;;;5047745;28;20040;-70
2024/02/12 08:32:42;;;;;;;75.00;25.85;;;7.30;99.90;;;;;;5051114;28;20083;-68
2024/02/12 08:35:08;;;;;;;83.30;27.27;;;7.30;99.90;;;;;;5056689;28;20025;-68
2024/02/12 08:37:37;;;;;;;83.43;27.10;;;7.30;99.90;;;;;;5059415;28;20041;-69
2024/02/12 08:40:07;;;;;;;71.53;25.02;;;7.30;99.90;;;;;;5057890;28;20385;-70
2024/02/12 08:42:33;;;;;;;84.43;27.88;;;7.40;99.90;;;;;;5059837;28;20029;-69
2024/02/12 08:44:59;;;;;;;84.18;26.75;;;7.40;99.90;;;;;;5059824;28;20418;-69
2024/02/12 08:47:26;;;;;;;79.88;27.67;;;7.50;99.90;;;;;;5060933;28;20033;-69
2024/02/12 08:49:53;;;;;;;82.32;26.95;;;7.50;99.90;;;;;;5061577;28;20023;-69
2024/02/12 08:52:19;;;;;;;81.65;27.73;;;7.50;99.90;;;;;;5059093;28;20036;-70
2024/02/12 08:54:45;;;;;;;79.28;27.65;;;7.40;99.90;;;;;;5063973;28;20032;-68
2024/02/12 08:57:14;;;;;;;86.13;29.08;;;7.50;99.90;;;;;;5061907;28;20021;-69
2024/02/12 08:59:43;;;;;;;86.10;29.08;;;7.50;99.90;;;;;;5063044;28;20074;-69
2024/02/12 09:02:13;;;;;;;76.35;27.33;;;7.50;99.90;;;;;;5064765;28;20466;-69
2024/02/12 09:04:38;;;;;;;87.65;28.92;;;7.60;99.90;;;;;;5062879;28;20036;-70
2024/02/12 09:07:05;;;;;;;81.30;29.00;;;7.60;99.90;;;;;;5064957;28;20053;-68
2024/02/12 09:09:30;;;;;;;76.15;27.08;;;7.60;99.90;;;;;;5064665;28;20021;-69
2024/02/12 09:11:58;;;;;;;82.90;28.60;;;7.60;99.90;;;;;;5062164;28;20041;-69
2024/02/12 09:14:23;;;;;;;80.80;28.92;;;7.60;99.90;;;;;;5062389;28;20019;-67
2024/02/12 09:16:49;;;;;;;78.25;28.75;;;7.60;99.90;;;;;;5061855;28;20104;-71
2024/02/12 09:19:16;;;;;;;88.15;29.85;;;7.70;99.90;;;;;;5063860;28;20027;-68
2024/02/12 09:21:42;;;;;;;77.75;29.80;;;7.70;99.90;;;;;;5064966;28;20029;-69
2024/02/12 09:24:08;;;;;;;74.55;28.38;;;7.70;99.90;;;;;;5063989;28;20080;-68
2024/02/12 09:26:34;;;;;;;68.07;27.63;;;7.70;99.90;;;;;;5065075;28;20037;-70
2024/02/12 09:29:01;;;;;;;80.50;29.30;;;7.70;99.90;;;;;;5065072;28;20519;-69
2024/02/12 09:31:27;;;;;;;79.22;28.33;;;7.80;99.90;;;;;;5063586;28;20025;-69
2024/02/12 09:33:54;;;;;;;85.55;29.77;;;7.80;99.90;;;;;;5062287;28;20025;-70
2024/02/12 09:36:19;;;;;;;81.22;29.90;;;7.80;99.90;;;;;;5063009;28;20036;-69
2024/02/12 09:38:45;;;;;;;77.88;28.73;;;7.80;99.90;;;;;;5063971;28;20032;-68
2024/02/12 09:41:15;;;;;;;76.35;29.13;;;7.90;99.90;;;;;;5064519;28;20032;-70
2024/02/12 09:43:44;;;;;;;77.03;28.55;;;8.00;99.90;;;;;;5063376;28;20025;-68
2024/02/12 09:46:13;;;;;;;71.20;28.42;;;7.90;99.90;;;;;;5064166;28;20032;-70
2024/02/12 09:48:39;;;;;;;73.65;28.17;;;7.90;99.90;;;;;;5056492;28;20048;-69
2024/02/12 09:51:05;;;;;;;82.20;29.85;;;7.90;99.90;;;;;;5062110;28;20025;-70
2024/02/12 09:53:34;;;;;;;77.30;30.02;;;7.90;99.90;;;;;;5062968;28;20023;-68
2024/02/12 09:56:00;;;;;;;74.13;28.23;;;8.00;99.90;;;;;;5062988;28;20017;-70
2024/02/12 09:58:26;;;;;;;73.60;29.35;;;8.00;99.90;;;;;;5063244;28;20056;-70
2024/02/12 10:00:51;;;;;;;83.32;29.98;;;7.90;99.90;;;;;;5064193;28;20029;-69
2024/02/12 10:03:17;;;;;;;73.07;27.83;;;7.90;99.90;;;;;;5062117;28;20029;-67
2024/02/12 10:05:43;;;;;;;71.63;28.70;;;7.90;99.90;;;;;;5063130;28;20053;-68
2024/02/12 10:08:21;;;;;;;76.97;28.77;;;7.90;99.90;;;;;;5063380;28;20047;-71
2024/02/12 10:10:48;;;;;;;72.60;29.48;;;7.90;99.90;;;;;;5063295;28;20029;-72
2024/02/12 10:13:15;;;;;;;80.13;28.92;;;7.90;99.90;;;;;;5063590;28;20045;-68
2024/02/12 10:15:40;;;;;;;75.38;27.35;;;7.90;99.90;;;;;;5063200;28;20028;-68
2024/02/12 10:18:10;;;;;;;71.57;28.30;;;8.00;99.90;;;;;;5063493;28;20013;-68
2024/02/12 10:20:39;;;;;;;74.68;28.98;;;8.00;99.90;;;;;;5062923;28;20686;-70
2024/02/12 10:23:10;;;;;;;77.18;30.20;;;8.00;99.90;;;;;;5063179;28;20024;-69
2024/02/12 10:25:47;;;;;;;69.95;28.05;;;8.10;99.90;;;;;;5062957;28;20045;-69
2024/02/12 10:28:13;;;;;;;70.25;28.50;;;8.20;99.90;;;;;;5063281;28;20052;-68
2024/02/12 10:30:41;;;;;;;73.78;29.92;;;8.20;99.90;;;;;;5062116;28;20039;-68
2024/02/12 10:33:08;;;;;;;72.93;29.88;;;8.30;99.90;;;;;;5062516;28;20025;-68
2024/02/12 10:35:38;;;;;;;72.70;29.70;;;8.30;99.90;;;;;;5056967;28;20281;-69
2024/02/12 10:38:08;;;;;;;79.50;30.90;;;8.30;99.90;;;;;;5060859;28;20029;-69
2024/02/12 10:40:52;;;;;;;71.63;29.30;;;8.40;99.90;;;;;;5052044;28;20402;-69
2024/02/12 10:43:21;;;;;;;68.13;27.98;;;8.40;99.90;;;;;;5052608;28;20051;-68
2024/02/12 10:45:48;;;;;;;74.20;29.55;;;8.40;99.90;;;;;;5059530;28;20037;-69
2024/02/12 10:48:17;;;;;;;72.40;27.27;;;8.40;99.90;;;;;;5059327;28;20021;-69
2024/02/12 10:50:47;;;;;;;72.43;30.23;;;8.40;99.90;;;;;;5042240;28;20044;-66
2024/02/12 10:53:15;;;;;;;65.72;28.05;;;8.40;99.90;;;;;;5046618;28;20433;-67
2024/02/12 10:55:42;;;;;;;64.65;28.00;;;8.40;99.90;;;;;;5055575;28;20028;-68
2024/02/12 10:58:09;;;;;;;66.32;26.42;;;8.40;99.90;;;;;;5060803;28;20032;-69
2024/02/12 11:00:38;;;;;;;68.93;27.10;;;8.40;99.90;;;;;;5055291;28;20021;-68
2024/02/12 11:03:08;;;;;;;71.47;27.80;;;8.40;99.90;;;;;;5056382;28;20684;-69
2024/02/12 11:05:38;;;;;;;67.63;27.42;;;8.50;99.90;;;;;;5056848;28;20025;-68
2024/02/12 11:08:05;;;;;;;70.15;28.55;;;8.40;99.90;;;;;;5059438;28;20029;-70
2024/02/12 11:10:34;;;;;;;69.95;29.58;;;8.40;99.90;;;;;;5058235;28;20037;-68
2024/02/12 11:13:05;;;;;;;71.05;28.88;;;8.50;99.90;;;;;;5056601;28;20036;-67
2024/02/12 11:15:31;;;;;;;67.43;28.38;;;8.50;99.90;;;;;;5058435;28;20066;-67
2024/02/12 11:17:57;;;;;;;72.60;28.38;;;8.50;99.90;;;;;;5058688;28;20052;-69
2024/02/12 11:20:25;;;;;;;66.00;28.30;;;8.60;99.90;;;;;;5061295;28;20055;-68
2024/02/12 11:22:52;;;;;;;68.40;27.52;;;8.70;99.90;;;;;;5059157;28;20051;-72
2024/02/12 11:25:18;;;;;;;62.17;27.73;;;8.80;99.90;;;;;;5059739;28;20089;-67
2024/02/12 11:27:57;;;;;;;61.70;27.65;;;9.00;99.90;;;;;;5060335;28;20059;-67
2024/02/12 11:30:23;;;;;;;64.53;25.63;;;9.20;99.90;;;;;;5061091;28;20057;-69
2024/02/12 11:32:49;;;;;;;60.25;26.30;;;9.40;99.90;;;;;;5059281;28;20622;-69
2024/02/12 11:35:18;;;;;;;64.22;27.60;;;9.70;99.90;;;;;;5059530;28;20017;-70
2024/02/12 11:37:48;;;;;;;58.88;25.63;;;9.80;99.90;;;;;;5059714;28;20025;-69
2024/02/12 11:40:18;;;;;;;60.25;25.92;;;9.70;99.90;;;;;;5057670;28;20088;-70
2024/02/12 11:42:51;;;;;;;53.28;24.70;;;9.70;99.90;;;;;;5059236;28;20024;-70
2024/02/12 11:45:22;;;;;;;51.83;22.10;;;9.60;99.90;;;;;;5060742;28;20068;-69
2024/02/12 11:47:48;;;;;;;56.20;24.35;;;9.60;99.90;;;;;;5060631;28;20116;-67
2024/02/12 11:50:24;;;;;;;58.55;24.33;;;9.40;99.90;;;;;;5059893;28;20033;-69
2024/02/12 11:52:54;;;;;;;52.90;23.60;;;9.40;99.90;;;;;;5059572;28;20185;-69
2024/02/12 11:55:20;;;;;;;51.25;23.20;;;9.30;99.90;;;;;;5060266;28;20032;-68
2024/02/12 11:57:47;;;;;;;51.15;22.60;;;9.20;99.90;;;;;;5058184;28;20159;-70
2024/02/12 12:00:20;;;;;;;53.38;22.40;;;9.10;99.90;;;;;;5059553;28;20097;-69
2024/02/12 12:02:55;;;;;;;58.08;24.30;;;9.00;99.90;;;;;;5058102;28;20085;-67
2024/02/12 12:05:26;;;;;;;49.80;22.90;;;9.00;99.90;;;;;;5060329;28;20033;-67
2024/02/12 12:07:54;;;;;;;50.20;23.60;;;8.90;99.90;;;;;;5060477;28;20041;-68
2024/02/12 12:10:27;;;;;;;49.20;21.90;;;8.90;99.90;;;;;;5058895;28;20032;-68
2024/02/12 12:12:54;;;;;;;53.65;23.65;;;9.00;99.90;;;;;;5058402;28;20025;-67
2024/02/12 12:15:19;;;;;;;53.20;23.75;;;9.10;99.90;;;;;;5058422;28;20040;-68
2024/02/12 12:17:48;;;;;;;57.83;23.92;;;9.10;99.90;;;;;;5059647;28;20036;-70
2024/02/12 12:20:18;;;;;;;55.17;23.55;;;9.20;99.90;;;;;;5059507;28;20020;-68
2024/02/12 12:22:47;;;;;;;53.75;23.30;;;9.30;99.90;;;;;;5058172;28;20033;-70
2024/02/12 12:25:13;;;;;;;46.00;21.75;;;9.90;99.90;;;;;;5057729;28;20429;-68
2024/02/12 12:27:39;;;;;;;47.45;22.40;;;11.00;99.90;;;;;;5061258;28;20492;-68
2024/02/12 12:30:14;;;;;;;38.90;20.42;;;11.80;99.90;;;;;;5063761;28;20036;-69
2024/02/12 12:32:51;;;;;;;38.08;19.15;;;12.40;99.90;;;;;;5057891;28;20086;-67
2024/02/12 12:35:18;;;;;;;36.70;18.65;;;12.70;99.90;;;;;;5063182;28;20092;-69
2024/02/12 12:37:47;;;;;;;31.50;17.67;;;12.30;99.90;;;;;;5056546;28;20029;-68
2024/02/12 12:40:18;;;;;;;32.80;17.05;;;11.80;99.90;;;;;;5056465;28;20370;-69
2024/02/12 12:42:49;;;;;;;22.17;10.38;;;11.10;99.90;;;;;;5056279;28;20100;-69
2024/02/12 12:45:16;;;;;;;24.20;9.05;;;10.50;99.90;;;;;;5058276;28;20048;-68
2024/02/12 12:47:42;;;;;;;21.60;9.98;;;10.00;99.90;;;;;;5057341;28;20441;-69
2024/02/12 12:50:13;;;;;;;20.90;9.65;;;9.60;99.90;;;;;;5057996;28;20062;-73